createdAt,value
2023-01-03T00:01:39.213Z,84.93
2023-01-03T00:06:43.751Z,84.84
2023-01-03T00:12:05.626Z,84.67
2023-01-03T00:17:08.075Z,84.58
2023-01-03T00:22:12.797Z,84.65
2023-01-03T00:27:16.594Z,84.72
2023-01-03T00:32:18.280Z,84.86
2023-01-03T00:37:20.027Z,84.95
2023-01-03T00:42:21.723Z,84.87
2023-01-03T00:47:23.268Z,84.78
2023-01-03T00:52:25.006Z,84.68
2023-01-03T00:57:26.563Z,84.56
2023-01-03T01:02:28.329Z,84.44
2023-01-03T01:07:30.200Z,84.32
2023-01-03T01:12:31.801Z,84.22
2023-01-03T01:17:33.440Z,84.09
2023-01-03T01:22:35.313Z,83.94
2023-01-03T01:27:36.941Z,83.85
2023-01-03T01:32:38.506Z,83.69
2023-01-03T01:37:40.084Z,83.48
2023-01-03T01:43:00.519Z,83.37
2023-01-03T01:48:05.274Z,83.33
2023-01-03T01:53:13.068Z,83.26
2023-01-03T01:58:15.721Z,83.10
2023-01-03T02:03:17.455Z,82.82
2023-01-03T02:08:19.309Z,82.50
2023-01-03T02:13:39.892Z,82.24
2023-01-03T02:18:47.264Z,82.00
2023-01-03T02:24:07.646Z,81.75
2023-01-03T02:29:12.019Z,81.58
2023-01-03T02:34:21.527Z,81.46
2023-01-03T02:39:26.823Z,81.31
2023-01-03T02:44:31.790Z,81.21
2023-01-03T02:49:42.448Z,81.05
2023-01-03T02:54:47.250Z,80.90
2023-01-03T02:59:53.743Z,80.84
2023-01-03T03:04:56.858Z,80.83
2023-01-03T03:10:17.264Z,80.77
2023-01-03T03:15:22.924Z,80.64
2023-01-03T03:20:43.269Z,80.52
2023-01-03T03:25:50.277Z,80.40
2023-01-03T03:30:53.315Z,80.27
2023-01-03T03:36:18.101Z,80.17
2023-01-03T03:41:59.940Z,80.04
2023-01-03T03:47:07.085Z,80.10
2023-01-03T03:52:19.582Z,80.22
2023-01-03T03:57:25.839Z,80.22
2023-01-03T04:02:28.240Z,80.17
2023-01-03T04:07:30.194Z,80.09
2023-01-03T04:12:31.849Z,80.04
2023-01-03T04:17:33.481Z,79.95
2023-01-03T04:22:35.115Z,79.81
2023-01-03T04:27:36.677Z,79.78
2023-01-03T04:32:38.395Z,79.74
2023-01-03T04:37:39.960Z,79.79
2023-01-03T04:43:00.384Z,79.73
2023-01-03T04:48:02.115Z,79.72
2023-01-03T04:53:03.716Z,79.78
2023-01-03T04:58:05.591Z,79.91
2023-01-03T05:03:07.167Z,80.03
2023-01-03T05:08:09.859Z,80.24
2023-01-03T05:13:11.752Z,80.48
2023-01-03T05:18:13.659Z,80.61
2023-01-03T05:23:34.919Z,80.57
2023-01-03T05:28:36.520Z,80.51
2023-01-03T05:33:39.231Z,80.47
2023-01-03T05:38:40.849Z,80.40
2023-01-03T05:43:43.211Z,80.31
2023-01-03T05:48:44.800Z,80.34
2023-01-03T05:53:46.444Z,80.43
2023-01-03T05:58:49.237Z,80.51
2023-01-03T06:03:50.869Z,80.53
2023-01-03T06:08:53.574Z,80.55
2023-01-03T06:13:55.326Z,80.46
2023-01-03T06:18:57.276Z,80.37
2023-01-03T06:23:58.864Z,80.30
2023-01-03T06:29:00.980Z,80.35
2023-01-03T06:34:03.141Z,80.37
2023-01-03T06:39:05.044Z,80.44
2023-01-03T06:44:06.699Z,80.48
2023-01-03T06:49:27.101Z,80.45
2023-01-03T06:54:33.067Z,80.30
2023-01-03T06:59:34.669Z,80.28
2023-01-03T07:04:36.396Z,80.25
2023-01-03T07:09:38.000Z,80.15
2023-01-03T07:14:39.545Z,80.00
2023-01-03T07:19:41.226Z,79.81
2023-01-03T07:24:42.791Z,79.61
2023-01-03T07:29:44.450Z,79.51
2023-01-03T07:34:45.991Z,79.55
2023-01-03T07:39:47.575Z,79.61
2023-01-03T07:44:49.110Z,79.62
2023-01-03T07:49:50.790Z,79.67
2023-01-03T07:54:52.374Z,79.87
2023-01-03T07:59:54.018Z,80.20
2023-01-03T08:04:55.705Z,80.82
2023-01-03T08:10:16.062Z,81.30
2023-01-03T08:15:17.865Z,81.36
2023-01-03T08:20:19.468Z,81.16
2023-01-03T08:25:21.065Z,80.96
2023-01-03T08:30:23.251Z,80.70
2023-01-03T08:35:25.907Z,80.30
2023-01-03T08:40:29.241Z,79.76
2023-01-03T08:45:30.859Z,79.59
2023-01-03T08:50:33.835Z,79.27
2023-01-03T08:55:35.466Z,78.84
2023-01-03T09:00:39.848Z,77.47
2023-01-03T09:05:41.569Z,76.67
2023-01-03T09:10:47.660Z,76.55
2023-01-03T09:15:49.516Z,76.22
2023-01-03T09:20:51.871Z,76.08
2023-01-03T09:25:53.664Z,75.92
2023-01-03T09:30:55.243Z,75.81
2023-01-03T09:35:56.835Z,75.64
2023-01-03T09:41:02.720Z,75.28
2023-01-03T09:46:07.622Z,74.82
2023-01-03T09:51:46.886Z,74.59
2023-01-03T09:57:23.214Z,74.29
2023-01-03T10:02:46.779Z,73.64
2023-01-03T10:08:07.374Z,72.83
2023-01-03T10:13:28.043Z,72.94
2023-01-03T10:18:48.592Z,72.84
2023-01-03T10:23:50.619Z,72.49
2023-01-03T10:28:52.460Z,71.45
2023-01-03T10:33:54.103Z,69.63
2023-01-03T10:39:03.674Z,69.35
2023-01-03T10:44:05.296Z,70.13
2023-01-03T10:49:27.088Z,70.69
2023-01-03T10:54:31.885Z,71.14
2023-01-03T10:59:33.751Z,71.04
2023-01-03T11:04:35.906Z,71.01
2023-01-03T11:09:52.182Z,71.33
2023-01-03T11:14:56.343Z,71.43
2023-01-03T11:19:58.053Z,70.83
2023-01-03T11:25:19.916Z,69.97
2023-01-03T11:30:21.695Z,68.11
2023-01-03T11:35:32.455Z,67.18
2023-01-03T11:40:43.213Z,67.63
2023-01-03T11:45:49.416Z,64.96
2023-01-03T11:51:03.196Z,64.94
2023-01-03T11:56:17.071Z,64.59
2023-01-03T12:01:39.032Z,64.48
2023-01-03T12:07:21.385Z,66.14
2023-01-03T12:12:23.951Z,67.46
2023-01-03T12:17:33.767Z,68.27
2023-01-03T12:22:41.812Z,67.69
2023-01-03T12:27:46.833Z,67.42
2023-01-03T12:32:52.070Z,67.83
2023-01-03T12:37:55.002Z,68.03
2023-01-03T12:43:15.520Z,68.28
2023-01-03T12:48:35.483Z,68.19
2023-01-03T12:53:50.075Z,68.73
2023-01-03T12:58:51.729Z,69.42
2023-01-03T13:04:00.363Z,69.64
2023-01-03T13:09:04.463Z,69.81
2023-01-03T13:14:16.085Z,70.15
2023-01-03T13:19:23.675Z,70.19
2023-01-03T13:24:25.159Z,70.14
2023-01-03T13:29:32.822Z,70.36
2023-01-03T13:34:35.956Z,70.15
2023-01-03T13:39:43.708Z,70.08
2023-01-03T13:44:45.393Z,69.92
2023-01-03T13:49:53.679Z,69.37
2023-01-03T13:54:56.672Z,69.24
2023-01-03T13:59:59.648Z,68.62
2023-01-03T14:05:08.362Z,68.66
2023-01-03T14:10:09.887Z,68.93
2023-01-03T14:15:26.409Z,68.93
2023-01-03T14:20:32.304Z,68.92
2023-01-03T14:25:34.050Z,69.63
2023-01-03T14:30:37.437Z,70.44
2023-01-03T14:35:40.609Z,70.65
2023-01-03T14:40:46.670Z,70.90
2023-01-03T14:46:03.752Z,71.02
2023-01-03T14:51:05.956Z,71.20
2023-01-03T14:56:10.401Z,71.30
2023-01-03T15:01:14.381Z,70.46
2023-01-03T15:06:24.315Z,70.38
2023-01-03T15:11:59.329Z,70.34
2023-01-03T15:17:03.044Z,70.84
2023-01-03T15:22:06.932Z,71.31
2023-01-03T15:27:27.283Z,71.75
2023-01-03T15:32:28.866Z,71.76
2023-01-03T15:37:30.619Z,71.72
2023-01-03T15:42:57.972Z,71.66
2023-01-03T15:48:01.297Z,71.53
2023-01-03T15:53:02.931Z,71.56
2023-01-03T16:03:05.075Z,71.74
2023-01-03T16:08:15.749Z,72.32
2023-01-03T16:13:17.919Z,73.08
2023-01-03T16:18:28.606Z,73.87
2023-01-03T16:23:31.164Z,74.52
2023-01-03T16:28:33.176Z,74.65
2023-01-03T16:33:35.817Z,74.71
2023-01-03T16:38:37.441Z,74.84
2023-01-03T16:43:39.040Z,74.82
2023-01-03T16:48:43.553Z,74.52
2023-01-03T16:53:46.423Z,74.41
2023-01-03T16:58:48.026Z,74.41
2023-01-03T17:03:49.710Z,74.67
2023-01-03T17:08:51.473Z,75.05
2023-01-03T17:13:56.869Z,75.22
2023-01-03T17:18:58.613Z,75.39
2023-01-03T17:24:00.225Z,75.59
2023-01-03T17:29:02.760Z,75.65
2023-01-03T17:34:16.513Z,75.55
2023-01-03T17:39:18.804Z,75.41
2023-01-03T17:44:20.372Z,74.99
2023-01-03T17:49:24.715Z,74.51
2023-01-03T17:54:28.534Z,74.08
2023-01-03T17:59:30.097Z,73.62
2023-01-03T18:04:57.787Z,73.26
2023-01-03T18:09:55.464Z,72.86
2023-01-03T18:14:57.247Z,72.64
2023-01-03T18:19:59.589Z,72.49
2023-01-03T18:25:01.179Z,72.39
2023-01-03T18:30:02.927Z,72.23
2023-01-03T18:35:05.130Z,72.03
2023-01-03T18:40:08.116Z,71.96
2023-01-03T18:45:11.272Z,71.96
2023-01-03T18:50:19.577Z,71.95
2023-01-03T18:55:24.064Z,71.95
2023-01-03T19:00:26.234Z,72.04
2023-01-03T19:05:27.777Z,72.17
2023-01-03T19:10:29.428Z,72.36
2023-01-03T19:15:31.064Z,72.65
2023-01-03T19:20:32.812Z,72.88
2023-01-03T19:25:34.551Z,72.96
2023-01-03T19:30:38.543Z,73.01
2023-01-03T19:35:40.239Z,73.09
2023-01-03T19:40:45.167Z,73.09
2023-01-03T19:45:47.006Z,73.03
2023-01-03T19:50:49.035Z,73.06
2023-01-03T19:55:52.513Z,73.40
2023-01-03T20:00:54.549Z,73.60
2023-01-03T20:05:57.170Z,73.56
2023-01-03T20:11:08.849Z,73.59
2023-01-03T20:16:11.425Z,73.44
2023-01-03T20:21:22.028Z,73.50
2023-01-03T20:26:29.991Z,73.75
2023-01-03T20:31:31.953Z,74.06
2023-01-03T20:36:36.524Z,74.70
2023-01-03T20:41:38.147Z,74.86
2023-01-03T20:46:40.228Z,74.42
2023-01-03T20:51:42.432Z,74.17
2023-01-03T20:56:44.727Z,73.98
2023-01-03T21:01:48.330Z,74.04
2023-01-03T21:06:52.010Z,74.13
2023-01-03T21:11:53.845Z,74.29
2023-01-03T21:16:55.659Z,74.77
2023-01-03T21:21:59.183Z,74.87
2023-01-03T21:27:00.780Z,75.09
2023-01-03T21:32:02.601Z,75.42
2023-01-03T21:37:04.375Z,75.58
2023-01-03T21:42:24.941Z,74.82
2023-01-03T21:47:26.585Z,73.66
2023-01-03T21:52:28.160Z,74.41
2023-01-03T21:57:29.969Z,74.20
2023-01-03T22:02:53.424Z,74.33
2023-01-03T22:08:00.340Z,74.83
2023-01-03T22:13:09.277Z,74.94
2023-01-03T22:18:13.237Z,74.80
2023-01-03T22:23:16.855Z,74.56
2023-01-03T22:28:18.530Z,75.35
2023-01-03T22:33:20.226Z,76.06
2023-01-03T22:38:21.975Z,76.34
2023-01-03T22:43:23.652Z,76.84
2023-01-03T22:48:35.217Z,77.03
2023-01-03T22:53:37.850Z,76.47
2023-01-03T22:58:39.460Z,76.44
2023-01-03T23:03:41.215Z,76.69
2023-01-03T23:08:43.677Z,77.05
2023-01-03T23:13:45.419Z,77.07
2023-01-03T23:18:47.057Z,77.36
2023-01-03T23:23:49.713Z,77.12
2023-01-03T23:28:54.819Z,76.57
2023-01-03T23:33:57.127Z,76.38
2023-01-03T23:38:58.833Z,76.12
2023-01-03T23:44:00.412Z,75.90
2023-01-03T23:49:02.127Z,75.87
2023-01-03T23:54:03.891Z,76.84
2023-01-03T23:59:05.705Z,77.92
